Time;durP1;ratioP1;P1;durP2;ratioP2;P2;SDS_P1;SDS_P2;PMS_P1;PMS_P2;Temp;Humidity;BMP_temperature;BMP_pressure;BME280_temperature;BME280_humidity;BME280_pressure;Samples;Min_cycle;Max_cycle;Signal;HPM_P1;HPM_P2
2022/05/06 00:01:53;;;;;;;15.07;8.20;;;;;;;15.71;87.13;96641.56;5077949;28;20216;-69
2022/05/06 00:04:20;;;;;;;18.33;8.50;;;;;;;15.61;87.89;96641.09;5073678;28;20211;-69
2022/05/06 00:06:47;;;;;;;14.48;7.95;;;;;;;15.72;87.97;96646.66;5077901;28;20699;-71
2022/05/06 00:09:14;;;;;;;16.63;8.90;;;;;;;15.81;88.47;96641.97;5078009;28;20214;-71
2022/05/06 00:11:41;;;;;;;19.13;9.95;;;;;;;15.58;88.34;96641.47;5077361;28;20215;-72
2022/05/06 00:14:07;;;;;;;19.52;10.00;;;;;;;15.60;88.45;96640.25;5077379;28;20254;-72
2022/05/06 00:16:34;;;;;;;16.25;9.40;;;;;;;15.46;89.19;96643.88;5077980;28;20204;-71
2022/05/06 00:19:00;;;;;;;16.38;9.52;;;;;;;15.55;88.89;96639.22;5077630;28;20200;-71
2022/05/06 00:21:27;;;;;;;17.13;9.60;;;;;;;15.57;89.45;96645.16;5077565;28;20250;-72
2022/05/06 00:23:53;;;;;;;18.17;10.40;;;;;;;15.44;89.69;96640.59;5076697;28;20204;-71
2022/05/06 00:26:21;;;;;;;16.80;9.68;;;;;;;15.63;89.99;96634.56;5077530;28;21189;-71
2022/05/06 00:28:48;;;;;;;16.70;9.80;;;;;;;15.51;89.29;96638.78;5077215;28;20207;-70
2022/05/06 00:31:14;;;;;;;16.45;9.07;;;;;;;15.49;89.71;96637.34;5077070;28;20224;-71
2022/05/06 00:33:43;;;;;;;19.20;10.40;;;;;;;15.57;89.43;96629.22;5076269;28;20207;-70
2022/05/06 00:36:09;;;;;;;20.38;9.57;;;;;;;15.38;90.23;96635.25;5077672;28;21352;-70
2022/05/06 00:38:36;;;;;;;18.38;9.70;;;;;;;15.54;89.21;96638.41;5078396;28;20211;-72
2022/05/06 00:41:02;;;;;;;15.77;8.60;;;;;;;15.41;89.43;96642.81;5076511;28;20238;-71
2022/05/06 00:43:30;;;;;;;18.80;9.45;;;;;;;15.67;89.01;96638.47;5076916;28;20443;-71
2022/05/06 00:45:57;;;;;;;17.83;10.35;;;;;;;15.54;89.55;96640.22;5078282;28;21189;-72
2022/05/06 00:48:25;;;;;;;18.70;9.23;;;;;;;15.62;89.38;96629.47;5077192;28;20663;-71
2022/05/06 00:50:53;;;;;;;16.75;9.90;;;;;;;15.53;89.37;96633.28;5076133;28;20227;-71
2022/05/06 00:53:19;;;;;;;17.13;9.80;;;;;;;15.40;89.66;96633.22;5077186;28;20203;-71
2022/05/06 00:55:47;;;;;;;17.02;9.48;;;;;;;15.46;89.35;96638.56;5077075;28;20196;-71
2022/05/06 00:58:15;;;;;;;16.73;9.55;;;;;;;15.61;89.42;96631.28;5077164;28;20229;-71
2022/05/06 01:00:43;;;;;;;17.20;9.98;;;;;;;15.52;90.12;96637.78;5076767;28;20223;-70
2022/05/06 01:03:09;;;;;;;17.98;10.35;;;;;;;15.34;90.45;96634.03;5073022;28;20658;-71
2022/05/06 01:05:36;;;;;;;15.27;8.48;;;;;;;15.21;91.76;96623.34;5076842;28;20207;-71
2022/05/06 01:08:03;;;;;;;18.75;9.20;;;;;;;15.46;90.31;96632.44;5076845;28;20586;-71
2022/05/06 01:10:30;;;;;;;18.63;10.20;;;;;;;15.37;90.46;96629.13;5076881;28;20897;-71
2022/05/06 01:12:56;;;;;;;16.00;9.50;;;;;;;15.41;90.04;96625.06;5076137;28;20208;-70
2022/05/06 01:15:24;;;;;;;16.42;9.43;;;;;;;15.50;89.54;96621.22;5077016;28;20203;-70
2022/05/06 01:17:56;;;;;;;19.30;9.20;;;;;;;15.72;88.77;96617.44;5076718;28;20206;-71
2022/05/06 01:20:24;;;;;;;14.13;8.48;;;;;;;15.50;90.01;96623.06;5076563;28;20227;-70
2022/05/06 01:22:54;;;;;;;14.30;8.00;;;;;;;15.41;90.39;96626.91;5075775;28;20200;-72
2022/05/06 01:25:21;;;;;;;14.50;8.70;;;;;;;15.41;90.24;96627.72;5077541;28;20681;-71
2022/05/06 01:27:50;;;;;;;16.73;9.40;;;;;;;15.44;89.90;96634.47;5076568;28;21228;-71
2022/05/06 01:30:24;;;;;;;14.82;8.43;;;;;;;15.40;90.02;96628.75;5076990;28;21164;-71
2022/05/06 01:32:52;;;;;;;15.60;9.13;;;;;;;15.20;90.37;96626.97;5076306;28;20290;-70
2022/05/06 01:35:22;;;;;;;15.07;8.10;;;;;;;15.23;90.85;96626.59;5076735;28;20699;-71
2022/05/06 01:37:50;;;;;;;18.58;8.65;;;;;;;15.28;90.77;96626.81;5076218;28;20299;-72
2022/05/06 01:40:19;;;;;;;15.80;8.60;;;;;;;15.41;89.90;96621.56;5077778;28;20711;-70
2022/05/06 01:42:47;;;;;;;14.93;8.55;;;;;;;15.26;89.85;96618.22;5079718;28;20203;-71
2022/05/06 01:45:16;;;;;;;17.88;9.57;;;;;;;15.35;89.62;96615.22;5080689;28;20219;-71
2022/05/06 01:47:43;;;;;;;16.90;9.27;;;;;;;15.26;89.82;96627.03;5080768;28;20200;-70
2022/05/06 01:50:11;;;;;;;15.43;8.60;;;;;;;15.18;90.27;96634.28;5080223;28;20242;-71
2022/05/06 01:52:41;;;;;;;17.20;8.73;;;;;;;15.33;89.61;96619.09;5079614;28;20238;-70
2022/05/06 01:55:08;;;;;;;12.80;8.02;;;;;;;15.10;90.29;96621.19;5082216;28;20203;-70
2022/05/06 01:57:36;;;;;;;19.08;9.52;;;;;;;15.16;90.06;96625.72;5080199;28;20202;-72
2022/05/06 02:00:05;;;;;;;16.35;9.10;;;;;;;15.14;90.35;96625.09;5080006;28;21072;-71
2022/05/06 02:02:31;;;;;;;16.15;9.50;;;;;;;15.04;90.37;96629.91;5078985;28;20386;-70
2022/05/06 02:07:42;;;;;;;16.77;9.48;;;;;;;15.15;89.66;96624.06;5079583;28;20575;-70
2022/05/06 02:10:09;;;;;;;17.77;10.32;;;;;;;15.12;90.35;96616.50;5080623;28;20253;-70
2022/05/06 02:12:37;;;;;;;15.45;9.38;;;;;;;15.17;90.76;96624.69;5079367;28;20210;-71
2022/05/06 02:15:04;;;;;;;17.13;9.10;;;;;;;14.93;91.00;96625.16;5079843;28;20211;-72
2022/05/06 02:17:30;;;;;;;18.98;9.55;;;;;;;14.92;91.27;96628.03;5079651;28;20894;-71
2022/05/06 02:19:57;;;;;;;14.95;9.00;;;;;;;14.99;90.08;96629.69;5080107;28;20224;-71
2022/05/06 02:22:27;;;;;;;15.18;8.45;;;;;;;15.01;90.53;96624.19;5079456;28;20312;-71
2022/05/06 02:24:55;;;;;;;17.05;8.73;;;;;;;14.97;90.31;96626.41;5079993;28;20294;-71
2022/05/06 02:27:21;;;;;;;15.23;9.13;;;;;;;14.82;90.26;96625.69;5076051;28;20204;-71
2022/05/06 02:35:14;;;;;;;17.73;9.70;;;;;;;14.79;91.34;96630.56;5079743;28;20256;-71
2022/05/06 02:37:40;;;;;;;20.80;10.32;;;;;;;14.75;91.37;96624.84;5079924;28;20200;-72
2022/05/06 02:40:08;;;;;;;18.42;9.40;;;;;;;14.94;91.14;96631.28;5079090;28;20235;-71
2022/05/06 02:42:35;;;;;;;17.35;9.80;;;;;;;14.85;90.78;96632.44;5078696;28;20307;-70
2022/05/06 02:45:03;;;;;;;21.50;10.43;;;;;;;14.92;91.13;96623.53;5079405;28;20204;-71
2022/05/06 02:47:30;;;;;;;20.42;11.32;;;;;;;14.84;90.58;96630.78;5079368;28;20207;-72
2022/05/06 02:49:57;;;;;;;17.85;10.05;;;;;;;14.85;91.25;96627.13;5078707;28;20235;-71
2022/05/06 02:52:23;;;;;;;20.10;11.07;;;;;;;14.77;91.60;96630.75;5077901;28;20211;-71
2022/05/06 02:54:50;;;;;;;19.73;10.98;;;;;;;14.96;91.37;96622.13;5079148;28;20207;-70
2022/05/06 02:57:16;;;;;;;23.45;12.25;;;;;;;14.87;92.37;96630.44;5079416;28;20210;-71
2022/05/06 02:59:43;;;;;;;21.33;11.93;;;;;;;14.79;92.64;96623.44;5078705;28;20220;-70
2022/05/06 03:02:11;;;;;;;23.45;12.48;;;;;;;15.01;92.71;96622.34;5078879;28;20586;-71
2022/05/06 03:04:38;;;;;;;25.63;12.88;;;;;;;14.78;93.66;96619.13;5075206;28;20204;-71
2022/05/06 03:07:07;;;;;;;23.23;12.25;;;;;;;14.76;94.29;96626.44;5079917;28;20206;-71
2022/05/06 03:09:34;;;;;;;29.60;14.07;;;;;;;14.78;94.06;96621.78;5078414;28;20233;-72
2022/05/06 03:12:00;;;;;;;30.00;12.98;;;;;;;14.76;94.29;96625.66;5078906;28;20207;-71
2022/05/06 03:14:27;;;;;;;25.65;13.32;;;;;;;14.73;94.54;96624.19;5078751;28;20200;-71
2022/05/06 03:16:54;;;;;;;28.65;13.68;;;;;;;14.79;94.15;96623.44;5078720;28;20204;-70
2022/05/06 03:19:22;;;;;;;27.45;14.40;;;;;;;15.11;93.49;96630.78;5079139;28;20223;-71
2022/05/06 03:21:52;;;;;;;28.77;14.90;;;;;;;14.92;93.84;96626.16;5078945;28;20219;-71
2022/05/06 03:24:19;;;;;;;29.15;14.10;;;;;;;14.82;94.13;96616.91;5078199;28;20207;-71
2022/05/06 03:26:46;;;;;;;28.00;13.80;;;;;;;14.64;94.71;96620.03;5078686;28;20222;-72
2022/05/06 03:29:12;;;;;;;27.40;14.93;;;;;;;14.71;94.85;96625.41;5078491;28;20212;-70
2022/05/06 03:31:39;;;;;;;28.83;14.98;;;;;;;14.38;96.33;96623.50;5078438;28;20216;-70
2022/05/06 03:34:06;;;;;;;30.73;15.05;;;;;;;14.61;95.23;96621.44;5077878;28;20208;-72
2022/05/06 03:36:34;;;;;;;28.05;15.07;;;;;;;14.65;95.48;96620.88;5078552;28;20231;-71
2022/05/06 03:39:01;;;;;;;30.60;15.45;;;;;;;14.51;95.27;96618.28;5079061;28;20222;-70
2022/05/06 03:41:28;;;;;;;26.33;14.45;;;;;;;14.63;94.72;96614.13;5077177;28;21051;-70
2022/05/06 03:43:54;;;;;;;29.67;14.93;;;;;;;14.37;95.86;96616.53;5077834;28;20204;-72
2022/05/06 03:46:21;;;;;;;30.85;15.98;;;;;;;14.40;95.17;96611.69;5078432;28;20207;-71
2022/05/06 03:48:47;;;;;;;29.88;15.18;;;;;;;14.23;95.67;96605.03;5078639;28;20207;-71
2022/05/06 03:51:22;;;;;;;31.50;16.20;;;;;;;14.32;95.22;96608.34;5077815;28;20219;-70
2022/05/06 03:53:50;;;;;;;29.67;14.82;;;;;;;14.48;94.81;96613.38;5077695;28;20199;-71
2022/05/06 03:56:17;;;;;;;31.40;16.58;;;;;;;14.17;95.03;96615.56;5077780;28;20208;-70
2022/05/06 03:58:45;;;;;;;34.80;17.05;;;;;;;14.08;95.39;96608.75;5078172;28;20312;-70
2022/05/06 04:01:12;;;;;;;31.45;16.10;;;;;;;13.96;95.18;96612.84;5077406;28;20223;-70
2022/05/06 04:03:39;;;;;;;32.40;15.70;;;;;;;14.02;94.83;96612.91;5073076;28;21198;-71
2022/05/06 04:06:06;;;;;;;31.10;16.20;;;;;;;14.05;94.55;96628.47;5077278;28;20215;-71
2022/05/06 04:08:33;;;;;;;32.85;16.50;;;;;;;14.27;93.14;96630.13;5078466;28;20199;-71
2022/05/06 04:11:01;;;;;;;30.75;15.70;;;;;;;14.55;92.43;96632.81;5077108;28;20292;-71
2022/05/06 04:13:28;;;;;;;31.15;16.50;;;;;;;14.28;92.67;96630.94;5076309;28;20679;-70
2022/05/06 04:15:54;;;;;;;33.38;16.35;;;;;;;13.94;94.16;96644.03;5077383;28;20208;-69
2022/05/06 04:18:21;;;;;;;32.05;15.90;;;;;;;14.07;93.88;96637.03;5078768;28;20604;-71
2022/05/06 04:23:32;;;;;;;34.03;16.13;;;;;;;14.25;92.97;96636.63;5076668;28;20330;-70
2022/05/06 04:26:01;;;;;;;32.30;15.85;;;;;;;14.11;93.47;96642.81;5078195;28;20211;-70
2022/05/06 04:28:29;;;;;;;30.83;16.60;;;;;;;14.19;93.26;96635.56;5077587;28;20262;-70
2022/05/06 04:30:56;;;;;;;33.33;17.60;;;;;;;14.14;93.54;96637.13;5077205;28;20224;-70
2022/05/06 04:33:24;;;;;;;31.17;16.48;;;;;;;14.42;92.06;96636.19;5076998;28;20195;-70
2022/05/06 04:35:51;;;;;;;29.83;16.70;;;;;;;14.34;91.93;96643.44;5077620;28;20732;-70
2022/05/06 04:38:18;;;;;;;30.40;16.00;;;;;;;14.42;90.59;96651.25;5077198;28;20211;-69
2022/05/06 04:40:45;;;;;;;30.90;16.43;;;;;;;14.42;90.68;96645.97;5077194;28;20212;-69
2022/05/06 04:43:13;;;;;;;30.67;15.25;;;;;;;14.33;91.59;96657.72;5076610;28;20228;-70
2022/05/06 04:45:40;;;;;;;27.37;15.00;;;;;;;14.28;90.78;96654.81;5075697;28;20211;-70
2022/05/06 04:48:07;;;;;;;34.63;15.43;;;;;;;14.33;90.51;96657.72;5077135;28;20203;-70
2022/05/06 04:50:34;;;;;;;28.13;14.57;;;;;;;14.46;89.58;96663.97;5077352;28;20227;-70
2022/05/06 04:53:01;;;;;;;32.88;15.63;;;;;;;14.28;89.89;96663.59;5075995;28;20215;-69
2022/05/06 04:55:27;;;;;;;30.38;15.05;;;;;;;14.26;89.96;96680.69;5077730;28;20199;-70
2022/05/06 04:57:54;;;;;;;26.95;14.73;;;;;;;14.10;90.42;96670.31;5076885;28;20204;-70
2022/05/06 05:00:22;;;;;;;30.77;14.73;;;;;;;14.31;89.88;96675.66;5077402;28;20254;-70
2022/05/06 05:02:49;;;;;;;29.88;14.88;;;;;;;14.28;89.63;96682.16;5074311;28;20219;-70
2022/05/06 05:05:15;;;;;;;29.38;14.23;;;;;;;14.19;88.99;96683.28;5076621;28;20870;-70
2022/05/06 05:07:42;;;;;;;27.52;14.35;;;;;;;14.45;89.28;96675.56;5076046;28;20204;-70
2022/05/06 05:10:09;;;;;;;29.88;14.73;;;;;;;14.51;88.18;96679.28;5076437;28;20228;-70
2022/05/06 05:12:36;;;;;;;25.73;14.30;;;;;;;14.50;87.62;96680.28;5075974;28;20573;-69
2022/05/06 05:15:03;;;;;;;28.73;14.88;;;;;;;14.46;87.49;96681.69;5079651;28;20316;-70
2022/05/06 05:17:31;;;;;;;24.73;13.65;;;;;;;14.51;87.70;96674.81;5080717;28;20210;-70
2022/05/06 05:19:57;;;;;;;29.70;14.20;;;;;;;14.40;86.80;96680.63;5080677;28;20227;-70
2022/05/06 05:22:24;;;;;;;28.25;14.05;;;;;;;14.62;85.78;96679.59;5080562;28;20224;-70
2022/05/06 05:24:50;;;;;;;27.48;13.48;;;;;;;14.72;85.92;96683.56;5080733;28;20199;-70
2022/05/06 05:27:17;;;;;;;26.40;13.50;;;;;;;14.75;84.83;96685.84;5080793;28;20790;-69
2022/05/06 05:29:44;;;;;;;22.80;13.20;;;;;;;14.65;85.88;96685.34;5081098;28;20216;-70
2022/05/06 05:32:11;;;;;;;28.50;13.30;;;;;;;14.71;85.65;96689.91;5080225;28;20199;-70
2022/05/06 05:34:42;;;;;;;30.35;13.98;;;;;;;15.02;84.55;96694.81;5080435;28;20657;-70
2022/05/06 05:37:09;;;;;;;24.65;13.18;;;;;;;14.87;84.49;96697.56;5080828;28;20221;-70
2022/05/06 05:39:36;;;;;;;28.05;13.15;;;;;;;14.90;83.46;96699.03;5080970;28;20200;-70
2022/05/06 05:42:03;;;;;;;24.00;12.70;;;;;;;14.78;84.70;96684.66;5080682;28;20332;-70
2022/05/06 05:49:59;;;;;;;21.58;11.82;;;;;;;14.96;82.83;96679.69;5079141;28;20238;-70
2022/05/06 05:52:25;;;;;;;22.15;13.18;;;;;;;14.84;83.36;96682.06;5079742;28;20230;-70
2022/05/06 05:54:52;;;;;;;24.67;12.82;;;;;;;14.83;82.06;96679.59;5080643;28;20210;-70
2022/05/06 05:57:18;;;;;;;25.15;11.82;;;;;;;14.66;82.33;96673.75;5080478;28;20203;-70
2022/05/06 05:59:45;;;;;;;23.60;12.18;;;;;;;14.65;82.64;96679.25;5080510;28;20223;-70
2022/05/06 06:02:11;;;;;;;24.63;12.98;;;;;;;14.74;83.62;96678.91;5080737;28;20227;-70
2022/05/06 06:04:38;;;;;;;21.05;10.95;;;;;;;14.78;83.02;96685.47;5077865;28;20204;-70
2022/05/06 06:07:06;;;;;;;21.35;11.35;;;;;;;14.86;81.75;96682.66;5080870;28;20200;-70
2022/05/06 06:09:33;;;;;;;21.83;11.35;;;;;;;14.62;81.70;96689.41;5080386;28;20546;-70
2022/05/06 06:12:00;;;;;;;23.70;11.40;;;;;;;14.71;82.17;96689.91;5079790;28;20911;-70
2022/05/06 06:14:26;;;;;;;24.83;12.00;;;;;;;14.80;80.37;96691.41;5079328;28;20695;-70
2022/05/06 06:16:53;;;;;;;24.45;12.05;;;;;;;14.97;80.56;96689.25;5080972;28;20207;-70
2022/05/06 06:19:19;;;;;;;23.20;11.38;;;;;;;15.23;79.14;96690.31;5079764;28;20691;-70
2022/05/06 06:21:46;;;;;;;22.83;12.32;;;;;;;15.28;80.56;96701.19;5079452;28;20660;-70
2022/05/06 06:24:14;;;;;;;24.02;11.50;;;;;;;15.29;80.37;96700.16;5079002;28;20627;-70
2022/05/06 06:26:40;;;;;;;21.85;11.70;;;;;;;15.27;79.73;96702.19;5078917;28;20231;-70
2022/05/06 06:29:07;;;;;;;22.67;11.38;;;;;;;15.24;79.94;96703.41;5080062;28;20763;-70
2022/05/06 06:31:34;;;;;;;20.48;11.48;;;;;;;15.38;79.81;96701.66;5079832;28;20735;-70
2022/05/06 06:34:00;;;;;;;24.65;11.60;;;;;;;15.40;79.09;96705.75;5078450;28;20719;-70
2022/05/06 06:36:27;;;;;;;22.77;11.23;;;;;;;15.52;78.54;96704.19;5079908;28;20562;-70
2022/05/06 06:38:54;;;;;;;26.55;11.70;;;;;;;15.45;76.96;96706.00;5079649;28;20210;-70
2022/05/06 06:41:21;;;;;;;19.92;10.82;;;;;;;15.19;80.11;96696.19;5078964;28;20224;-70
2022/05/06 06:43:48;;;;;;;20.55;11.93;;;;;;;15.16;79.90;96693.91;5079140;28;20239;-70
2022/05/06 06:46:15;;;;;;;24.77;11.57;;;;;;;15.31;78.24;96698.13;5078929;28;20203;-71
2022/05/06 06:48:42;;;;;;;19.02;10.50;;;;;;;15.62;77.49;96701.19;5079084;28;20264;-70
2022/05/06 06:51:09;;;;;;;24.00;10.20;;;;;;;15.54;77.42;96714.59;5079328;28;20224;-70
2022/05/06 06:53:36;;;;;;;19.33;10.70;;;;;;;15.40;79.62;96700.44;5078959;28;20192;-70
2022/05/06 06:56:02;;;;;;;22.45;11.18;;;;;;;15.57;76.56;96703.59;5078716;28;20216;-71
2022/05/06 06:58:30;;;;;;;18.80;10.43;;;;;;;15.76;76.82;96709.03;5079197;28;20199;-70
2022/05/06 07:00:57;;;;;;;16.80;10.13;;;;;;;15.36;80.98;96709.81;5079798;28;20319;-70
2022/05/06 07:03:24;;;;;;;20.02;10.63;;;;;;;15.48;77.31;96718.06;5075924;28;20238;-70
2022/05/06 07:14:04;;;;;;;20.65;10.98;;;;;;;15.75;75.04;96711.88;5078131;28;20237;-71
2022/05/06 07:16:30;;;;;;;20.40;10.73;;;;;;;15.26;76.87;96719.97;5078341;28;20215;-70
2022/05/06 07:18:57;;;;;;;23.52;10.48;;;;;;;15.61;75.57;96723.44;5078496;28;20204;-69
2022/05/06 07:21:23;;;;;;;18.30;10.38;;;;;;;15.53;75.73;96728.91;5078304;28;20226;-71
2022/05/06 07:23:50;;;;;;;23.20;11.20;;;;;;;15.49;75.25;96727.66;5077661;28;21293;-70
2022/05/06 07:26:16;;;;;;;23.65;10.73;;;;;;;15.47;76.82;96724.38;5078797;28;20208;-70
2022/05/06 07:28:43;;;;;;;18.13;10.77;;;;;;;15.63;75.96;96727.56;5077262;28;20215;-70
2022/05/06 07:31:11;;;;;;;19.52;9.93;;;;;;;15.59;75.91;96725.47;5077915;28;20234;-70
2022/05/06 07:33:37;;;;;;;24.13;10.55;;;;;;;15.61;75.85;96732.22;5076515;28;20192;-70
2022/05/06 07:36:04;;;;;;;17.52;9.75;;;;;;;15.88;76.16;96732.19;5077974;28;20226;-70
2022/05/06 07:38:31;;;;;;;19.00;9.48;;;;;;;15.66;75.64;96731.66;5077569;28;20482;-70
2022/05/06 07:40:59;;;;;;;20.45;10.40;;;;;;;15.88;75.01;96734.00;5075541;28;20707;-70
2022/05/06 07:43:26;;;;;;;20.85;10.00;;;;;;;15.65;73.69;96735.31;5076672;28;20220;-70
2022/05/06 07:45:52;;;;;;;19.67;10.20;;;;;;;15.65;74.38;96737.97;5078351;28;20204;-70
2022/05/06 07:48:20;;;;;;;20.27;10.82;;;;;;;16.00;75.20;96727.94;5077946;28;20199;-70
2022/05/06 07:50:47;;;;;;;19.77;10.70;;;;;;;15.57;76.20;96738.16;5078231;28;20229;-70
2022/05/06 07:53:15;;;;;;;21.45;10.73;;;;;;;15.83;75.91;96725.00;5077696;28;20204;-70
2022/05/06 07:55:42;;;;;;;20.77;10.93;;;;;;;16.21;73.66;96729.66;5078268;28;20865;-70
2022/05/06 07:58:08;;;;;;;17.92;9.80;;;;;;;16.20;72.94;96728.00;5077758;28;20214;-70
2022/05/06 08:00:35;;;;;;;18.15;10.10;;;;;;;15.98;73.22;96735.28;5078116;28;20231;-70
2022/05/06 08:05:56;;;;;;;18.90;9.18;;;;;;;15.69;76.56;96729.41;5077522;28;20207;-70
2022/05/06 08:08:23;;;;;;;21.48;10.48;;;;;;;15.54;76.05;96736.69;5077612;28;20207;-69
2022/05/06 08:10:49;;;;;;;18.63;9.63;;;;;;;15.48;77.53;96740.13;5077998;28;20220;-70
2022/05/06 08:13:17;;;;;;;23.17;11.13;;;;;;;15.31;79.40;96736.13;5076806;28;20203;-70
2022/05/06 08:15:44;;;;;;;17.60;10.02;;;;;;;15.14;77.09;96743.72;5077484;28;20214;-70
2022/05/06 08:18:10;;;;;;;21.00;10.18;;;;;;;15.41;75.33;96743.75;5077668;28;20204;-70
2022/05/06 08:20:39;;;;;;;18.88;9.50;;;;;;;15.70;73.57;96747.00;5076563;28;20688;-70
2022/05/06 08:23:08;;;;;;;16.70;9.43;;;;;;;15.84;74.40;96745.25;5076432;28;20220;-70
2022/05/06 08:25:34;;;;;;;18.45;8.73;;;;;;;15.35;75.91;96752.47;5077480;28;20199;-70
2022/05/06 08:28:01;;;;;;;20.95;9.95;;;;;;;15.87;75.27;96746.50;5077450;28;20203;-70
2022/05/06 08:30:28;;;;;;;16.00;9.20;;;;;;;16.01;72.78;96748.19;5077268;28;20573;-70
2022/05/06 08:32:54;;;;;;;14.60;9.05;;;;;;;15.84;75.70;96749.53;5076469;28;20223;-69
2022/05/06 08:35:21;;;;;;;17.17;9.25;;;;;;;16.12;73.57;96747.59;5076972;28;21145;-70
2022/05/06 08:37:48;;;;;;;19.08;9.88;;;;;;;16.25;73.65;96744.19;5077523;28;20204;-69
2022/05/06 08:40:21;;;;;;;16.05;9.15;;;;;;;16.52;71.04;96752.06;5074636;28;20220;-70
2022/05/06 08:42:48;;;;;;;17.73;9.48;;;;;;;16.28;71.92;96759.75;5077437;28;20602;-70
2022/05/06 08:50:53;;;;;;;17.08;8.68;;;;;;;16.31;72.60;96757.53;5077006;28;20645;-69
2022/05/06 08:53:22;;;;;;;17.08;8.93;;;;;;;16.49;73.10;96757.78;5076149;28;20199;-70
2022/05/06 08:55:51;;;;;;;18.27;9.13;;;;;;;16.55;73.02;96759.66;5076981;28;20215;-70
2022/05/06 08:58:18;;;;;;;16.67;8.10;;;;;;;16.45;71.08;96761.88;5076714;28;20295;-70
2022/05/06 09:00:45;;;;;;;17.35;8.95;;;;;;;16.04;72.12;96761.09;5076854;28;20219;-70
2022/05/06 09:03:14;;;;;;;17.90;8.43;;;;;;;16.10;72.62;96765.63;5075392;28;20782;-70
2022/05/06 09:05:51;;;;;;;19.60;9.00;;;;;;;16.51;70.92;96766.41;5076299;28;20199;-70
2022/05/06 09:08:18;;;;;;;21.70;9.15;;;;;;;16.02;72.43;96764.94;5077333;28;20325;-70
2022/05/06 09:11:00;;;;;;;17.83;8.85;;;;;;;16.37;72.83;96772.72;5076796;28;20765;-71
2022/05/06 09:13:27;;;;;;;16.17;9.35;;;;;;;16.47;72.23;96765.19;5076601;28;20199;-70
2022/05/06 09:19:14;;;;;;;20.55;9.68;;;;;;;16.54;72.86;96766.81;5077264;28;20246;-70
2022/05/06 09:21:42;;;;;;;14.80;8.40;;;;;;;16.44;72.95;96783.38;5077073;28;20230;-70
2022/05/06 09:24:19;;;;;;;16.88;8.18;;;;;;;16.78;72.61;96773.44;5076123;28;20227;-70
2022/05/06 09:27:01;;;;;;;20.02;8.73;;;;;;;16.77;73.94;96782.44;5076341;28;20202;-70
2022/05/06 09:29:29;;;;;;;18.92;9.27;;;;;;;16.42;75.16;96783.56;5076829;28;20286;-70
2022/05/06 09:31:56;;;;;;;19.50;9.07;;;;;;;16.40;76.30;96787.44;5076052;28;20207;-70
2022/05/06 09:34:28;;;;;;;19.35;10.32;;;;;;;16.51;79.17;96787.69;5076589;28;20207;-70
2022/05/06 09:36:54;;;;;;;19.40;9.98;;;;;;;16.39;77.92;96789.28;5076962;28;20207;-70
2022/05/06 09:39:22;;;;;;;18.17;9.57;;;;;;;16.04;79.94;96795.63;5074914;28;20211;-70
2022/05/06 09:41:48;;;;;;;18.52;9.25;;;;;;;15.43;79.33;96792.19;5076797;28;20827;-70
2022/05/06 09:44:23;;;;;;;17.83;9.82;;;;;;;15.78;81.00;96792.00;5075710;28;20220;-70
2022/05/06 09:47:08;;;;;;;16.35;9.35;;;;;;;16.38;79.08;96794.78;5076549;28;20221;-71
2022/05/06 09:49:39;;;;;;;14.25;8.85;;;;;;;16.36;78.40;96797.66;5075127;28;20857;-70
2022/05/06 09:52:10;;;;;;;19.85;8.93;;;;;;;16.73;76.70;96791.84;5076555;28;20695;-70
2022/05/06 09:54:36;;;;;;;17.38;8.93;;;;;;;16.42;79.03;96791.56;5075765;28;20253;-70
2022/05/06 09:57:04;;;;;;;21.73;9.40;;;;;;;16.83;76.84;96789.63;5075706;28;20211;-70
2022/05/06 09:59:32;;;;;;;16.75;9.23;;;;;;;16.87;74.82;96794.31;5076114;28;20200;-70
2022/05/06 10:01:59;;;;;;;18.95;8.90;;;;;;;17.02;73.48;96791.47;5079088;28;20208;-71
2022/05/06 10:04:25;;;;;;;18.58;8.70;;;;;;;16.97;73.38;96791.25;5079425;28;20224;-70
2022/05/06 10:06:54;;;;;;;15.00;9.02;;;;;;;16.98;74.83;96788.41;5080022;28;20207;-68
2022/05/06 10:09:22;;;;;;;18.42;9.43;;;;;;;17.46;74.51;96788.03;5080829;28;20663;-68
2022/05/06 10:11:52;;;;;;;16.30;9.13;;;;;;;17.71;73.83;96791.72;5080259;28;20222;-68
2022/05/06 10:14:19;;;;;;;19.15;9.43;;;;;;;17.40;74.38;96796.88;5079801;28;20245;-68
2022/05/06 10:16:47;;;;;;;16.58;9.20;;;;;;;17.80;74.06;96785.94;5080393;28;20207;-68
2022/05/06 10:19:25;;;;;;;15.38;8.57;;;;;;;17.89;71.74;96799.88;5079739;28;20208;-69
2022/05/06 10:21:52;;;;;;;17.30;8.10;;;;;;;17.50;71.21;96789.28;5079933;28;20196;-69
2022/05/06 10:24:20;;;;;;;15.02;8.82;;;;;;;17.37;74.14;96789.25;5079427;28;20670;-68
2022/05/06 10:26:47;;;;;;;15.32;8.32;;;;;;;17.54;71.43;96787.00;5079597;28;21066;-68
2022/05/06 10:32:56;;;;;;;18.65;8.85;;;;;;;17.36;74.40;96789.47;5078868;28;20674;-68
2022/05/06 10:35:43;;;;;;;16.90;8.52;;;;;;;17.45;75.50;96794.41;5079616;28;20215;-69
2022/05/06 10:38:21;;;;;;;16.55;8.68;;;;;;;16.89;77.06;96794.97;5079136;28;20199;-68
2022/05/06 10:40:51;;;;;;;19.95;9.88;;;;;;;16.81;78.70;96796.97;5076668;28;20220;-68
2022/05/06 10:43:54;;;;;;;18.50;8.93;;;;;;;16.91;76.54;96792.91;5078493;28;20304;-68
2022/05/06 10:46:38;;;;;;;15.60;8.52;;;;;;;17.02;80.55;96788.81;5079869;28;20204;-68
2022/05/06 10:49:47;;;;;;;16.02;9.15;;;;;;;17.06;78.57;96787.41;5079201;28;20269;-68
2022/05/06 10:52:54;;;;;;;17.00;9.60;;;;;;;17.58;76.64;96790.91;5078695;28;20546;-69
2022/05/06 10:55:26;;;;;;;14.68;8.18;;;;;;;17.42;76.36;96780.66;5079574;28;20928;-70
2022/05/06 10:58:03;;;;;;;19.02;9.20;;;;;;;17.56;74.73;96791.09;5080139;28;20199;-69
2022/05/06 11:00:33;;;;;;;22.52;9.32;;;;;;;17.41;74.98;96785.19;5078830;28;20223;-69
2022/05/06 11:02:59;;;;;;;16.25;7.72;;;;;;;17.33;75.91;96796.03;5078081;28;20245;-69
2022/05/06 11:05:29;;;;;;;16.80;9.07;;;;;;;17.42;74.91;96788.66;5079380;28;20285;-69
2022/05/06 11:07:58;;;;;;;20.83;9.30;;;;;;;17.41;75.46;96781.69;5079460;28;20204;-69
2022/05/06 11:10:28;;;;;;;16.13;8.82;;;;;;;17.20;74.80;96780.03;5078528;28;20223;-69
2022/05/06 11:12:57;;;;;;;21.38;9.30;;;;;;;17.01;75.56;96789.84;5078161;28;20207;-70
2022/05/06 11:15:25;;;;;;;18.30;9.60;;;;;;;17.26;77.21;96786.41;5079319;28;20199;-70
2022/05/06 11:17:55;;;;;;;18.50;9.88;;;;;;;17.31;76.44;96782.13;5078310;28;20211;-70
2022/05/06 11:20:23;;;;;;;20.25;8.35;;;;;;;17.43;76.27;96792.97;5078873;28;20230;-70
2022/05/06 11:23:05;;;;;;;16.23;8.38;;;;;;;17.22;74.74;96783.31;5078205;28;20204;-69
2022/05/06 11:25:35;;;;;;;16.10;8.75;;;;;;;17.02;77.96;96791.47;5076646;28;20207;-69
2022/05/06 11:28:04;;;;;;;21.83;9.70;;;;;;;17.04;77.40;96787.59;5078787;28;20452;-69
2022/05/06 11:30:32;;;;;;;17.60;9.50;;;;;;;16.91;78.81;96797.41;5078269;28;20230;-69
2022/05/06 11:33:00;;;;;;;18.38;9.70;;;;;;;16.82;82.24;96796.78;5078443;28;20273;-69
2022/05/06 11:35:33;;;;;;;18.65;9.25;;;;;;;16.86;80.63;96795.34;5078512;28;20192;-70
2022/05/06 11:38:01;;;;;;;18.08;10.32;;;;;;;17.03;81.35;96795.78;5078935;28;20707;-70
2022/05/06 11:40:36;;;;;;;17.10;9.90;;;;;;;17.05;81.00;96786.56;5075251;28;20720;-69
2022/05/06 11:43:20;;;;;;;18.33;9.63;;;;;;;17.11;81.48;96797.22;5077727;28;21064;-69
2022/05/06 11:48:33;;;;;;;21.55;10.60;;;;;;;16.86;84.17;96800.66;5077213;28;20582;-69
2022/05/06 11:51:04;;;;;;;21.60;10.50;;;;;;;17.17;83.36;96793.75;5076767;28;20235;-69
2022/05/06 11:53:31;;;;;;;21.00;10.45;;;;;;;16.80;85.59;96800.66;5076764;28;20203;-68
2022/05/06 11:55:59;;;;;;;20.00;10.65;;;;;;;16.79;84.23;96801.66;5077390;28;20199;-70
2022/05/06 11:58:27;;;;;;;20.67;11.30;;;;;;;16.96;84.91;96800.28;5076957;28;20213;-69
2022/05/06 12:00:54;;;;;;;22.55;11.45;;;;;;;16.81;86.71;96802.31;5076849;28;20219;-69
2022/05/06 12:03:22;;;;;;;20.05;11.15;;;;;;;16.71;86.15;96797.38;5076509;28;20559;-69
2022/05/06 12:06:07;;;;;;;20.25;11.35;;;;;;;16.95;88.24;96798.66;5077019;28;20203;-70
2022/05/06 12:08:35;;;;;;;20.92;10.80;;;;;;;16.66;90.02;96798.97;5076663;28;20219;-69
2022/05/06 12:11:07;;;;;;;24.38;10.55;;;;;;;16.84;88.98;96791.25;5077147;28;20227;-70